Terminal Aerodrome Forecast
Issued by NWS

Home | Current Version | Previous Version | Text Only | Print | Product List | Glossary On
Versions: 1 2 3 4 5 6 7 8 9 10 11 12
088
FTUS42 KGSP 280536
TAFGMU
TAF
KGMU 280536Z 2806/2906 15005KT P6SM FEW060
     FM280900 12003KT 6SM BR FEW250
     FM281400 12006KT P6SM FEW060 SCT250
     FM290000 11003KT P6SM SCT060 BKN200=

USA.gov is the U.S. government's official web portal to all federal, state and local government web resources and services.